Meadows, CA

6:47 AM PDT on October 21, 2014 (GMT -0700)
Near Liberty H.S. | Change Station
CLOSE
Current Station
Personal Weather Station
Location: Bakersfield, CA
Elevation: 370 ft
Nearby Weather Stations

Elev 370 ft 35.37 °N, 119.12 °W | Updated 0 second ago

Overcast
Overcast
61.3 °F
Feels Like 61.3 °F
N
3.0
Wind Variable Wind from NW
Gusts 6.0 mph

Today
High -- | Low -- °F
--% Chance of Precip.
Yesterday
High -- | Low -- °F
Precip. -- in
7:07 AM 6:13 PM
Waning Crescent, 5% visible
Pressure 30.04 in
Visibility 10.0 miles
Clouds Overcast 4900 ft
Dew Point 50 °F
Humidity 65%
Rainfall 0.00 in
Snow Depth Not available.
UV 0 out of 12
Pollen 4.20 out of 12
PM2.5 Good
Flu Activity Sporadic
SPECI KBFL 211256Z 31004KT 10SM OVC049 16/09 A3004 RMK AO2 T01560094

More Conditions Fewer Conditions

Pressure 30.04 in
Visibility 10.0 miles
Clouds Overcast 4900 ft
Dew Point 50 °F
Humidity 65%
Rainfall 0.00 in
Snow Depth Not available.
UV 0 out of 12
Pollen 4.20 out of 12
PM2.5 Good
Flu Activity Sporadic
SPECI KBFL 211256Z 31004KT 10SM OVC049 16/09 A3004 RMK AO2 T01560094

More Conditions Fewer Conditions

10-Day Weather Forecast

Almanac

Astronomy

Oct. 21, 2014 Rise Set
Actual Time 7:07 AM PDT 6:13 PM PDT
Civil Twilight 6:41 AM PDT 6:39 PM PDT
Nautical Twilight 6:12 AM PDT 7:08 PM PDT
Astronomical Twilight 5:42 AM PDT 7:38 PM PDT
Moon 5:01 AM PDT 5:06 PM PDT
Length of Visible Light 11h 57m
Length of Day
11h 05m
Tomorrow will be 2m 4s shorter.
Waning Crescent, 5% of the Moon is Illuminated
Today
Waning Crescent
Oct 23
New
Oct 30
First Quarter
Nov 6
Full
Nov 14
Last Quarter

Today's Extremes

State Highs State Lows

Community

WunderPhotos

Upload Photos

1,763,662 photos uploaded!

Nearby

Air Quality

  Air Quality AQ Index Pollutant
Yesterday Good
OZONE
Yesterday Good
PM2.5
Current Good
PM2.5
Tuesday Moderate
PM10
Wednesday Moderate
PM10
Thursday Moderate
PM10
Friday Moderate
PM10
Saturday Moderate
PM10

Snow Depth

Station Depth Elevation
Virginia Lakes Ridge 0 in 9200 ft
Leavitt Lake 1 in 9400 ft
Sonora Pass 0 in 8800 ft
Leavitt Meadows 1 in 7200 ft
Summit Meadow 1 in 9122 ft

Earthquake Activity

City Distance Mag. Time & Date
Lone Pine, California 68 miles 2.6 5:26 AM PDT
2014-10-19
Minimum magnitude displayed is 2.5.

Coastal Water Temperatures

Place Temperature
No Stations Reporting

Nearby Weather Stations